Time;durP1;ratioP1;P1;durP2;ratioP2;P2;SDS_P1;SDS_P2;PMS_P1;PMS_P2;Temp;Humidity;BMP_temperature;BMP_pressure;BME280_temperature;BME280_humidity;BME280_pressure;Samples;Min_cycle;Max_cycle;Signal;HPM_P1;HPM_P2
2021/05/18 00:00:34;;;;;;;;;;;23.40;45.70;;;;;;1582296;74;1938;-67
2021/05/18 00:02:36;;;;;;;;;;;23.40;45.70;;;;;;1567822;74;668;-67
2021/05/18 00:04:38;;;;;;;;;;;23.50;45.70;;;;;;1568088;74;1135;-67
2021/05/18 00:06:41;;;;;;;;;;;23.50;45.60;;;;;;1566314;74;736;-66
2021/05/18 00:13:23;;;;;;;;;;;23.50;45.70;;;;;;1562346;74;1628;-67
2021/05/18 00:15:25;;;;;;;;;;;23.50;45.60;;;;;;1561611;74;1082;-67
2021/05/18 00:17:28;;;;;;;;;;;23.50;45.60;;;;;;1558467;74;788;-67
2021/05/18 00:19:30;;;;;;;;;;;23.50;45.60;;;;;;1564710;74;1925;-67
2021/05/18 00:21:32;;;;;;;;;;;23.50;45.60;;;;;;1550259;74;606;-69
2021/05/18 00:23:34;;;;;;;;;;;23.50;45.60;;;;;;1565555;74;732;-67
2021/05/18 00:25:36;;;;;;;;;;;23.40;45.40;;;;;;1566049;74;1183;-66
2021/05/18 00:27:38;;;;;;;;;;;23.50;45.60;;;;;;1569296;74;708;-68
2021/05/18 00:29:39;;;;;;;;;;;23.40;45.50;;;;;;1561811;74;786;-67
2021/05/18 00:31:41;;;;;;;;;;;23.50;45.70;;;;;;1572397;74;859;-67
2021/05/18 00:33:43;;;;;;;;;;;23.40;45.50;;;;;;1583926;74;812;-68
2021/05/18 00:35:46;;;;;;;;;;;23.50;45.70;;;;;;1577747;74;1142;-68
2021/05/18 00:37:48;;;;;;;;;;;23.50;45.60;;;;;;1572044;74;685;-68
2021/05/18 00:39:50;;;;;;;;;;;23.40;45.70;;;;;;1564745;74;1920;-68
2021/05/18 00:41:52;;;;;;;;;;;23.40;45.50;;;;;;1564741;74;799;-68
2021/05/18 00:43:54;;;;;;;;;;;23.50;45.70;;;;;;1564764;74;679;-67
2021/05/18 00:45:57;;;;;;;;;;;23.50;45.70;;;;;;1552760;74;1166;-67
2021/05/18 00:47:59;;;;;;;;;;;23.50;45.60;;;;;;1574778;74;754;-68
2021/05/18 00:50:01;;;;;;;;;;;23.50;45.60;;;;;;1578437;74;705;-68
2021/05/18 00:52:05;;;;;;;;;;;23.50;45.50;;;;;;1571553;74;741;-68
2021/05/18 00:54:15;;;;;;;;;;;23.50;45.40;;;;;;1562115;74;770;-68
2021/05/18 00:58:33;;;;;;;;;;;23.40;45.30;;;;;;1512902;75;1052;-68
2021/05/18 01:00:34;;;;;;;;;;;23.40;45.40;;;;;;1574538;74;1918;-68
2021/05/18 01:02:36;;;;;;;;;;;23.40;45.40;;;;;;1563724;74;841;-69
2021/05/18 01:04:41;;;;;;;;;;;23.30;45.40;;;;;;1567024;74;1118;-68
2021/05/18 01:06:42;;;;;;;;;;;23.40;45.50;;;;;;1578854;74;1495;-68
2021/05/18 01:08:44;;;;;;;;;;;23.30;45.20;;;;;;1570186;74;940;-68
2021/05/18 01:10:46;;;;;;;;;;;23.30;45.40;;;;;;1576587;74;735;-68
2021/05/18 01:12:48;;;;;;;;;;;23.40;45.40;;;;;;1579821;74;774;-68
2021/05/18 01:14:49;;;;;;;;;;;23.40;45.40;;;;;;1572767;74;1057;-68
2021/05/18 01:16:52;;;;;;;;;;;23.40;45.50;;;;;;1573618;74;733;-68
2021/05/18 01:18:53;;;;;;;;;;;23.30;45.60;;;;;;1565375;74;801;-67
2021/05/18 01:20:56;;;;;;;;;;;23.30;45.60;;;;;;1577810;74;1931;-67
2021/05/18 01:22:58;;;;;;;;;;;23.30;45.60;;;;;;1567372;74;684;-68
2021/05/18 01:25:00;;;;;;;;;;;23.40;45.50;;;;;;1563794;74;1186;-67
2021/05/18 01:27:01;;;;;;;;;;;23.40;45.50;;;;;;1571240;74;726;-68
2021/05/18 01:29:04;;;;;;;;;;;23.40;45.30;;;;;;1560461;74;756;-68
2021/05/18 01:31:06;;;;;;;;;;;23.50;45.40;;;;;;1568088;74;631;-69
2021/05/18 01:33:08;;;;;;;;;;;23.50;45.20;;;;;;1566866;74;728;-67
2021/05/18 01:35:11;;;;;;;;;;;23.50;45.20;;;;;;1563243;74;1129;-68
2021/05/18 01:37:13;;;;;;;;;;;23.50;45.20;;;;;;1569898;74;1374;-67
2021/05/18 01:43:42;;;;;;;;;;;23.50;45.40;;;;;;1564769;74;626;-70
2021/05/18 01:45:44;;;;;;;;;;;23.50;45.50;;;;;;1570666;74;1924;-70
2021/05/18 01:47:50;;;;;;;;;;;23.40;45.40;;;;;;1563531;74;677;-69
2021/05/18 01:49:50;;;;;;;;;;;23.50;45.40;;;;;;1574002;74;1608;-69
2021/05/18 01:51:54;;;;;;;;;;;23.40;45.50;;;;;;1564066;74;666;-69
2021/05/18 01:53:57;;;;;;;;;;;23.50;45.70;;;;;;1560810;74;713;-70
2021/05/18 01:58:08;;;;;;;;;;;23.40;45.50;;;;;;1548582;74;888;-70
2021/05/18 02:00:10;;;;;;;;;;;23.40;45.60;;;;;;1576949;74;1946;-70
2021/05/18 02:02:12;;;;;;;;;;;23.50;45.70;;;;;;1575152;74;786;-70
2021/05/18 02:04:21;;;;;;;;;;;23.40;45.50;;;;;;1578027;74;714;-70
2021/05/18 02:06:23;;;;;;;;;;;23.40;45.60;;;;;;1574735;74;1047;-70
2021/05/18 02:08:25;;;;;;;;;;;23.40;45.80;;;;;;1572014;74;698;-69
2021/05/18 02:10:27;;;;;;;;;;;23.40;45.60;;;;;;1569088;74;717;-71
2021/05/18 02:12:29;;;;;;;;;;;23.50;45.70;;;;;;1560802;74;861;-71
2021/05/18 02:14:32;;;;;;;;;;;23.50;45.60;;;;;;1571873;74;1153;-70
2021/05/18 02:16:37;;;;;;;;;;;23.40;45.50;;;;;;1564417;72;3112;-66
2021/05/18 02:25:29;;;;;;;;;;;23.30;45.40;;;;;;1492794;77;1641;-66
2021/05/18 02:27:31;;;;;;;;;;;23.40;45.50;;;;;;1496210;78;629;-67
2021/05/18 02:29:33;;;;;;;;;;;23.30;45.50;;;;;;1504596;78;753;-67
2021/05/18 02:31:35;;;;;;;;;;;23.30;45.70;;;;;;1496564;77;737;-67
2021/05/18 02:33:37;;;;;;;;;;;23.40;45.60;;;;;;1498311;77;816;-68
2021/05/18 02:35:39;;;;;;;;;;;23.30;45.70;;;;;;1500670;77;1191;-68
2021/05/18 02:37:41;;;;;;;;;;;23.40;45.60;;;;;;1496167;78;739;-68
2021/05/18 02:39:43;;;;;;;;;;;23.30;45.60;;;;;;1504710;78;807;-65
2021/05/18 02:41:45;;;;;;;;;;;23.40;45.70;;;;;;1502253;77;1941;-65
2021/05/18 02:43:54;;;;;;;;;;;23.40;45.60;;;;;;1502126;77;937;-66
2021/05/18 02:50:19;;;;;;;;;;;23.40;45.50;;;;;;1518678;76;1636;-67
2021/05/18 02:52:21;;;;;;;;;;;23.40;45.40;;;;;;1531783;76;710;-67
2021/05/18 02:54:25;;;;;;;;;;;23.30;45.30;;;;;;1544202;75;807;-67
2021/05/18 02:56:45;;;;;;;;;;;23.40;45.30;;;;;;1540891;75;1677;-67
2021/05/18 02:58:52;;;;;;;;;;;23.40;45.20;;;;;;1537124;76;1650;-68
2021/05/18 03:00:46;;;;;;;;;;;23.30;45.30;;;;;;1529558;75;1919;-67
2021/05/18 03:02:50;;;;;;;;;;;23.30;45.40;;;;;;1542566;76;774;-66
2021/05/18 03:04:51;;;;;;;;;;;23.20;45.30;;;;;;1542406;76;1478;-68
2021/05/18 03:06:53;;;;;;;;;;;23.20;45.60;;;;;;1545281;76;1089;-67
2021/05/18 03:08:55;;;;;;;;;;;23.20;45.50;;;;;;1538749;76;777;-69
2021/05/18 03:10:57;;;;;;;;;;;23.30;45.60;;;;;;1542598;76;834;-68
2021/05/18 03:13:01;;;;;;;;;;;23.30;45.50;;;;;;1535158;76;729;-68
2021/05/18 03:15:03;;;;;;;;;;;23.20;45.20;;;;;;1520896;76;1142;-68
2021/05/18 03:17:05;;;;;;;;;;;23.30;45.30;;;;;;1544018;76;769;-68
2021/05/18 03:19:08;;;;;;;;;;;23.20;45.40;;;;;;1536472;76;840;-68
2021/05/18 03:21:11;;;;;;;;;;;23.30;45.50;;;;;;1545722;76;1926;-68
2021/05/18 03:23:12;;;;;;;;;;;23.30;45.50;;;;;;1545782;75;628;-68
2021/05/18 03:25:15;;;;;;;;;;;23.30;45.40;;;;;;1518087;75;1155;-68
2021/05/18 03:27:16;;;;;;;;;;;23.40;45.50;;;;;;1522563;76;730;-67
2021/05/18 03:29:22;;;;;;;;;;;23.40;45.40;;;;;;1542336;75;731;-68
2021/05/18 03:36:02;;;;;;;;;;;23.30;45.50;;;;;;1535477;75;1640;-68
2021/05/18 03:38:16;;;;;;;;;;;23.40;45.70;;;;;;1524884;75;733;-68
2021/05/18 03:40:11;;;;;;;;;;;23.30;45.70;;;;;;1546073;75;1644;-68
2021/05/18 03:44:49;;;;;;;;;;;23.40;45.40;;;;;;1518995;76;876;-68
2021/05/18 03:48:56;;;;;;;;;;;23.40;45.20;;;;;;1531278;75;862;-68
2021/05/18 04:02:42;;;;;;;;;;;23.40;45.20;;;;;;1523358;76;1857;-65
2021/05/18 04:04:50;;;;;;;;;;;23.40;45.30;;;;;;1524807;75;1696;-66
2021/05/18 04:11:53;;;;;;;;;;;23.30;45.30;;;;;;1529674;76;1642;-64
2021/05/18 04:18:21;;;;;;;;;;;23.20;45.50;;;;;;1541947;76;1610;-65
2021/05/18 04:22:49;;;;;;;;;;;23.20;45.50;;;;;;1532254;76;1892;-66
2021/05/18 04:25:12;;;;;;;;;;;23.20;45.50;;;;;;1541898;76;1146;-67
2021/05/18 04:38:47;;;;;;;;;;;23.20;45.30;;;;;;1540290;76;833;-66
2021/05/18 04:50:19;;;;;;;;;;;23.20;45.20;;;;;;1485708;78;1629;-67
2021/05/18 04:52:15;;;;;;;;;;;23.20;45.10;;;;;;1499393;78;1208;-66
2021/05/18 04:54:47;;;;;;;;;;;23.20;45.40;;;;;;1516212;76;1729;-66
2021/05/18 05:01:01;;;;;;;;;;;23.20;45.40;;;;;;1517167;76;1931;-66
2021/05/18 05:03:21;;;;;;;;;;;23.10;45.50;;;;;;1517516;76;1583;-67
2021/05/18 05:07:34;;;;;;;;;;;23.20;45.30;;;;;;1518303;76;1611;-67
2021/05/18 05:09:37;;;;;;;;;;;23.20;45.30;;;;;;1514933;76;1656;-65
2021/05/18 05:14:14;;;;;;;;;;;23.20;45.70;;;;;;1518274;76;1601;-68
2021/05/18 05:16:10;;;;;;;;;;;23.10;45.50;;;;;;1523240;75;1721;-66
2021/05/18 05:18:12;;;;;;;;;;;23.10;45.50;;;;;;1528770;76;810;-68
2021/05/18 05:20:14;;;;;;;;;;;23.20;45.30;;;;;;1525497;76;730;-68
2021/05/18 05:22:16;;;;;;;;;;;23.20;45.30;;;;;;1515929;76;1985;-68
2021/05/18 05:24:18;;;;;;;;;;;23.20;45.50;;;;;;1530041;76;714;-68
2021/05/18 05:26:19;;;;;;;;;;;23.20;45.50;;;;;;1529579;76;1153;-69
2021/05/18 05:28:21;;;;;;;;;;;23.20;45.40;;;;;;1529170;76;786;-68
2021/05/18 05:30:23;;;;;;;;;;;23.20;45.30;;;;;;1524669;76;833;-68
2021/05/18 05:32:25;;;;;;;;;;;23.20;45.40;;;;;;1521553;75;780;-68
2021/05/18 05:34:27;;;;;;;;;;;23.30;45.20;;;;;;1518029;76;767;-69
2021/05/18 05:36:29;;;;;;;;;;;23.30;45.10;;;;;;1513575;76;1126;-69
2021/05/18 05:38:31;;;;;;;;;;;23.20;45.10;;;;;;1515076;76;703;-69
2021/05/18 05:40:36;;;;;;;;;;;23.20;45.10;;;;;;1520181;76;805;-67
2021/05/18 05:42:38;;;;;;;;;;;23.20;45.20;;;;;;1533452;76;1931;-67
2021/05/18 05:44:40;;;;;;;;;;;23.20;45.20;;;;;;1543370;76;765;-70
2021/05/18 05:46:42;;;;;;;;;;;23.20;45.70;;;;;;1528073;76;1103;-70
2021/05/18 05:48:44;;;;;;;;;;;23.20;45.50;;;;;;1542179;76;801;-69
2021/05/18 05:50:46;;;;;;;;;;;23.20;45.60;;;;;;1529637;76;689;-68
2021/05/18 05:52:48;;;;;;;;;;;23.10;45.60;;;;;;1531418;76;838;-69
2021/05/18 05:54:50;;;;;;;;;;;23.10;45.70;;;;;;1540451;76;777;-70
2021/05/18 05:56:52;;;;;;;;;;;23.10;45.90;;;;;;1540111;75;1090;-69
2021/05/18 05:58:54;;;;;;;;;;;23.10;46.20;;;;;;1532569;76;728;-69
2021/05/18 06:00:56;;;;;;;;;;;23.00;45.90;;;;;;1532535;76;809;-68
2021/05/18 06:02:58;;;;;;;;;;;23.00;46.00;;;;;;1544666;76;1914;-68
2021/05/18 06:05:00;;;;;;;;;;;23.00;45.70;;;;;;1536932;76;1154;-68
2021/05/18 06:07:02;;;;;;;;;;;23.10;45.60;;;;;;1531398;76;794;-69
2021/05/18 06:09:05;;;;;;;;;;;23.10;45.30;;;;;;1540235;76;744;-68
2021/05/18 06:11:13;;;;;;;;;;;23.10;45.10;;;;;;1537152;76;883;-69
2021/05/18 06:15:47;;;;;;;;;;;23.10;45.40;;;;;;1524286;75;1172;-65
2021/05/18 06:47:44;;;;;;;;;;;22.60;42.30;;;;;;1538966;75;1647;-64
2021/05/18 06:49:55;;;;;;;;;;;22.60;42.30;;;;;;1530644;75;822;-64
2021/05/18 06:51:50;;;;;;;;;;;22.60;42.30;;;;;;1527051;76;1674;-64
2021/05/18 06:53:52;;;;;;;;;;;22.60;41.90;;;;;;1526592;75;905;-63
2021/05/18 06:55:56;;;;;;;;;;;22.50;42.00;;;;;;1523558;76;1134;-64
2021/05/18 06:58:03;;;;;;;;;;;22.50;42.10;;;;;;1528415;76;1686;-62
2021/05/18 07:00:21;;;;;;;;;;;22.50;41.80;;;;;;1522398;76;1628;-64
2021/05/18 07:02:22;;;;;;;;;;;22.50;41.80;;;;;;1539602;76;1903;-63
2021/05/18 07:04:25;;;;;;;;;;;22.50;41.80;;;;;;1533898;76;710;-63
2021/05/18 07:10:44;;;;;;;;;;;22.50;41.50;;;;;;1534949;75;815;-63
2021/05/18 07:12:47;;;;;;;;;;;22.50;41.40;;;;;;1528259;76;955;-62
2021/05/18 07:14:49;;;;;;;;;;;22.50;41.00;;;;;;1535153;75;778;-61
2021/05/18 07:16:51;;;;;;;;;;;22.50;41.30;;;;;;1537818;76;1145;-63
2021/05/18 07:18:53;;;;;;;;;;;22.50;41.20;;;;;;1525682;75;950;-63
2021/05/18 07:20:55;;;;;;;;;;;22.50;41.10;;;;;;1525968;76;862;-63
2021/05/18 07:22:59;;;;;;;;;;;22.40;41.00;;;;;;1530444;76;1926;-64
2021/05/18 07:25:00;;;;;;;;;;;22.40;40.70;;;;;;1516925;76;1666;-63
2021/05/18 07:27:03;;;;;;;;;;;22.40;40.90;;;;;;1519474;76;751;-63
2021/05/18 07:29:05;;;;;;;;;;;22.40;40.30;;;;;;1525026;75;762;-65
2021/05/18 07:31:07;;;;;;;;;;;22.40;40.50;;;;;;1524038;76;726;-61
2021/05/18 07:33:09;;;;;;;;;;;22.30;40.50;;;;;;1523424;75;831;-63
2021/05/18 07:35:11;;;;;;;;;;;22.40;40.60;;;;;;1529269;76;1087;-62
2021/05/18 07:37:13;;;;;;;;;;;22.30;40.50;;;;;;1527727;76;766;-62
2021/05/18 07:39:15;;;;;;;;;;;22.30;40.20;;;;;;1527818;76;760;-61
2021/05/18 07:41:18;;;;;;;;;;;22.30;40.40;;;;;;1526024;76;715;-62
2021/05/18 07:43:20;;;;;;;;;;;22.20;40.20;;;;;;1520661;76;1914;-61
2021/05/18 07:45:26;;;;;;;;;;;22.30;40.40;;;;;;1531745;76;1131;-63
2021/05/18 07:47:29;;;;;;;;;;;22.30;40.00;;;;;;1522910;76;1904;-63
2021/05/18 07:49:32;;;;;;;;;;;22.10;40.00;;;;;;1523316;76;1769;-62
2021/05/18 07:51:52;;;;;;;;;;;22.20;39.60;;;;;;1530327;75;1685;-64
2021/05/18 08:00:52;;;;;;;;;;;22.30;40.60;;;;;;1520131;75;720;-64
2021/05/18 08:05:19;;;;;;;;;;;22.40;40.30;;;;;;1525461;76;1604;-63
2021/05/18 08:07:21;;;;;;;;;;;22.50;40.50;;;;;;1525652;76;805;-62
2021/05/18 08:09:24;;;;;;;;;;;22.50;40.40;;;;;;1527868;75;774;-64
2021/05/18 08:11:25;;;;;;;;;;;22.40;40.20;;;;;;1527646;76;777;-64
2021/05/18 08:13:27;;;;;;;;;;;22.50;40.20;;;;;;1524578;76;725;-63
2021/05/18 08:15:40;;;;;;;;;;;22.50;40.20;;;;;;1533243;73;2529;-66
2021/05/18 08:17:53;;;;;;;;;;;22.50;40.20;;;;;;1561416;74;1309;-68
2021/05/18 08:22:27;;;;;;;;;;;22.50;40.50;;;;;;1569388;74;858;-68
2021/05/18 08:48:30;;;;;;;;;;;22.40;40.10;;;;;;1566864;74;1640;-70
2021/05/18 09:37:47;;;;;;;;;;;22.30;40.60;;;;;;1558776;75;1834;-68
2021/05/18 10:14:28;;;;;;;;;;;22.30;40.70;;;;;;1472821;78;1071;-72
2021/05/18 10:17:15;;;;;;;;;;;22.30;40.90;;;;;;1562891;75;1646;-72
2021/05/18 10:36:00;;;;;;;;;;;22.50;41.10;;;;;;1551327;74;1131;-69
2021/05/18 10:38:01;;;;;;;;;;;22.40;41.00;;;;;;1552987;74;1807;-69
2021/05/18 10:40:21;;;;;;;;;;;22.40;41.30;;;;;;1559020;74;731;-70
2021/05/18 10:42:23;;;;;;;;;;;22.40;40.90;;;;;;1561850;74;747;-70
2021/05/18 10:44:25;;;;;;;;;;;22.40;40.60;;;;;;1549169;74;833;-69
2021/05/18 10:46:28;;;;;;;;;;;22.40;40.60;;;;;;1563362;74;1156;-70
2021/05/18 10:48:34;;;;;;;;;;;22.40;40.60;;;;;;1562868;74;829;-70
2021/05/18 10:50:42;;;;;;;;;;;22.30;40.50;;;;;;1554242;74;711;-69
2021/05/18 10:52:45;;;;;;;;;;;22.40;40.50;;;;;;1561233;74;768;-69
2021/05/18 10:54:47;;;;;;;;;;;22.30;40.60;;;;;;1557907;74;950;-69
2021/05/18 10:56:57;;;;;;;;;;;22.30;40.50;;;;;;1525921;76;1192;-69
2021/05/18 10:58:59;;;;;;;;;;;22.40;40.60;;;;;;1527379;76;762;-70
2021/05/18 11:01:01;;;;;;;;;;;22.40;40.50;;;;;;1525931;76;727;-69
2021/05/18 11:03:05;;;;;;;;;;;22.30;40.40;;;;;;1521447;76;1940;-70
2021/05/18 11:05:08;;;;;;;;;;;22.30;40.40;;;;;;1523872;76;1684;-70
2021/05/18 11:07:10;;;;;;;;;;;22.40;40.60;;;;;;1519139;76;1104;-69
2021/05/18 11:09:13;;;;;;;;;;;22.30;40.50;;;;;;1523001;76;614;-70
2021/05/18 11:11:27;;;;;;;;;;;22.30;40.30;;;;;;1530600;76;1696;-68
2021/05/18 11:13:30;;;;;;;;;;;22.20;40.20;;;;;;1519378;76;788;-69
2021/05/18 11:15:32;;;;;;;;;;;22.30;40.30;;;;;;1519515;76;1131;-71
2021/05/18 11:17:35;;;;;;;;;;;22.30;40.30;;;;;;1526276;76;784;-70
2021/05/18 11:19:58;;;;;;;;;;;22.30;40.40;;;;;;1520966;76;772;-72
2021/05/18 11:21:59;;;;;;;;;;;22.30;40.50;;;;;;1522819;76;1662;-70
2021/05/18 11:24:13;;;;;;;;;;;22.30;41.00;;;;;;1526748;76;1914;-69
2021/05/18 11:26:16;;;;;;;;;;;22.20;40.80;;;;;;1522166;76;1154;-70
2021/05/18 11:28:22;;;;;;;;;;;22.20;40.60;;;;;;1521147;76;2046;-68
2021/05/18 11:30:27;;;;;;;;;;;22.30;40.80;;;;;;1522095;76;802;-69
2021/05/18 11:32:29;;;;;;;;;;;22.30;40.60;;;;;;1517463;76;783;-71
2021/05/18 11:34:31;;;;;;;;;;;22.30;40.50;;;;;;1516860;76;801;-70
2021/05/18 11:36:35;;;;;;;;;;;22.40;40.70;;;;;;1525776;76;1107;-70
2021/05/18 11:38:37;;;;;;;;;;;22.40;40.70;;;;;;1500700;77;714;-69
2021/05/18 11:40:40;;;;;;;;;;;22.40;41.00;;;;;;1499538;77;767;-71
2021/05/18 11:42:42;;;;;;;;;;;22.50;41.30;;;;;;1503651;77;847;-70
2021/05/18 11:44:44;;;;;;;;;;;22.60;41.20;;;;;;1508501;77;1950;-73
2021/05/18 11:46:47;;;;;;;;;;;22.60;41.50;;;;;;1508885;77;1173;-71
2021/05/18 11:48:56;;;;;;;;;;;22.50;41.70;;;;;;1518347;77;723;-72
2021/05/18 11:51:06;;;;;;;;;;;22.40;41.70;;;;;;1510148;77;723;-73
2021/05/18 11:53:08;;;;;;;;;;;22.50;41.90;;;;;;1536574;76;1806;-75
2021/05/18 11:55:19;;;;;;;;;;;22.40;41.80;;;;;;1537791;76;799;-72
2021/05/18 11:57:21;;;;;;;;;;;22.50;42.30;;;;;;1526386;76;735;-72
2021/05/18 11:59:23;;;;;;;;;;;22.60;42.00;;;;;;1526934;76;758;-73
2021/05/18 12:01:25;;;;;;;;;;;22.50;42.70;;;;;;1526302;76;753;-72
2021/05/18 12:03:27;;;;;;;;;;;22.50;42.90;;;;;;1522186;76;1940;-74
2021/05/18 12:05:29;;;;;;;;;;;22.50;43.30;;;;;;1524714;76;1140;-73
2021/05/18 12:07:33;;;;;;;;;;;22.60;43.10;;;;;;1518665;76;727;-74
2021/05/18 12:09:36;;;;;;;;;;;22.60;43.00;;;;;;1523633;76;778;-74
2021/05/18 12:11:38;;;;;;;;;;;22.60;43.20;;;;;;1517691;76;1474;-75
2021/05/18 12:13:40;;;;;;;;;;;22.60;43.10;;;;;;1517753;76;885;-73
2021/05/18 12:15:42;;;;;;;;;;;22.60;43.00;;;;;;1529144;76;1073;-75
2021/05/18 12:17:43;;;;;;;;;;;22.70;42.90;;;;;;1531724;76;783;-72
2021/05/18 12:19:45;;;;;;;;;;;22.80;42.50;;;;;;1541569;76;708;-73
2021/05/18 12:21:48;;;;;;;;;;;22.80;42.40;;;;;;1532168;76;751;-69
2021/05/18 12:24:04;;;;;;;;;;;22.80;42.20;;;;;;1528559;76;1917;-75
2021/05/18 12:26:08;;;;;;;;;;;22.70;42.00;;;;;;1526836;76;1174;-73
2021/05/18 12:28:11;;;;;;;;;;;22.80;42.10;;;;;;1526783;76;1564;-75
2021/05/18 12:30:13;;;;;;;;;;;22.70;42.20;;;;;;1535038;76;754;-73
2021/05/18 12:32:31;;;;;;;;;;;22.70;42.40;;;;;;1519347;76;739;-73
2021/05/18 12:34:29;;;;;;;;;;;22.70;42.30;;;;;;1532672;76;1601;-74
2021/05/18 12:36:30;;;;;;;;;;;22.70;42.30;;;;;;1527851;76;1143;-74
2021/05/18 12:38:32;;;;;;;;;;;22.80;42.10;;;;;;1524951;76;763;-72
2021/05/18 12:40:36;;;;;;;;;;;22.80;42.00;;;;;;1523723;76;791;-73
2021/05/18 12:42:38;;;;;;;;;;;22.80;41.80;;;;;;1536318;76;737;-74
2021/05/18 12:44:50;;;;;;;;;;;22.90;41.80;;;;;;1531300;76;1944;-74
2021/05/18 12:46:54;;;;;;;;;;;22.80;41.70;;;;;;1494540;77;1384;-74
2021/05/18 12:48:56;;;;;;;;;;;22.90;41.80;;;;;;1524330;76;801;-73
2021/05/18 12:50:58;;;;;;;;;;;22.80;41.50;;;;;;1535931;76;827;-73
2021/05/18 12:52:59;;;;;;;;;;;22.90;41.70;;;;;;1526515;76;710;-74
2021/05/18 12:55:01;;;;;;;;;;;22.80;41.60;;;;;;1527494;76;740;-75
2021/05/18 12:57:03;;;;;;;;;;;22.80;41.50;;;;;;1537635;76;1110;-76
2021/05/18 12:59:09;;;;;;;;;;;22.70;41.80;;;;;;1534926;76;690;-76
2021/05/18 13:01:13;;;;;;;;;;;22.60;41.70;;;;;;1541523;76;755;-76
2021/05/18 13:03:15;;;;;;;;;;;22.60;42.00;;;;;;1540188;76;1936;-75
2021/05/18 13:05:25;;;;;;;;;;;22.60;42.10;;;;;;1531993;76;816;-75
2021/05/18 13:07:27;;;;;;;;;;;22.60;42.10;;;;;;1516609;76;1770;-75
2021/05/18 13:09:31;;;;;;;;;;;22.60;42.10;;;;;;1529512;76;739;-76
2021/05/18 13:13:44;;;;;;;;;;;22.80;42.00;;;;;;1529331;76;872;-75
2021/05/18 13:15:46;;;;;;;;;;;22.80;42.10;;;;;;1537173;76;1090;-76
2021/05/18 13:17:52;;;;;;;;;;;22.80;42.10;;;;;;1541038;76;796;-75
2021/05/18 13:19:59;;;;;;;;;;;22.80;42.00;;;;;;1535184;76;650;-75
2021/05/18 13:22:01;;;;;;;;;;;22.90;42.30;;;;;;1525767;76;1257;-75
2021/05/18 13:26:26;;;;;;;;;;;23.00;42.10;;;;;;1545829;76;1144;-76
2021/05/18 13:28:28;;;;;;;;;;;23.10;42.10;;;;;;1528060;76;675;-76
2021/05/18 13:30:30;;;;;;;;;;;23.00;42.10;;;;;;1521781;76;720;-75
2021/05/18 13:32:32;;;;;;;;;;;23.00;42.30;;;;;;1537282;76;749;-75
2021/05/18 13:34:34;;;;;;;;;;;23.10;42.40;;;;;;1535779;76;772;-75
2021/05/18 13:36:36;;;;;;;;;;;23.10;42.60;;;;;;1521487;76;1139;-76
2021/05/18 13:38:38;;;;;;;;;;;23.10;42.80;;;;;;1531615;76;803;-75
2021/05/18 13:40:40;;;;;;;;;;;23.20;42.80;;;;;;1533048;76;731;-76
2021/05/18 13:42:42;;;;;;;;;;;23.20;42.80;;;;;;1532600;76;671;-76
2021/05/18 13:44:44;;;;;;;;;;;23.10;42.70;;;;;;1539676;76;1925;-75
2021/05/18 13:46:46;;;;;;;;;;;23.10;43.00;;;;;;1523512;76;1145;-76
2021/05/18 13:48:48;;;;;;;;;;;23.10;42.80;;;;;;1541868;76;826;-75
2021/05/18 13:50:50;;;;;;;;;;;23.20;43.20;;;;;;1534324;76;747;-75
2021/05/18 13:52:52;;;;;;;;;;;23.20;43.00;;;;;;1543294;76;759;-73
2021/05/18 13:54:55;;;;;;;;;;;23.10;43.50;;;;;;1532199;76;788;-75
2021/05/18 13:56:58;;;;;;;;;;;23.20;43.40;;;;;;1527480;76;1151;-75
2021/05/18 13:59:00;;;;;;;;;;;23.20;43.60;;;;;;1531590;76;695;-76
2021/05/18 14:01:06;;;;;;;;;;;23.20;43.60;;;;;;1528275;76;779;-75
2021/05/18 14:03:07;;;;;;;;;;;23.20;43.60;;;;;;1527783;76;674;-76
2021/05/18 14:05:13;;;;;;;;;;;23.30;43.60;;;;;;1534722;76;1936;-76
2021/05/18 14:07:39;;;;;;;;;;;23.20;43.70;;;;;;1527291;76;1112;-74
2021/05/18 14:09:26;;;;;;;;;;;23.20;43.70;;;;;;1529285;76;1788;-76
2021/05/18 14:11:28;;;;;;;;;;;23.20;43.80;;;;;;1533966;76;830;-76
2021/05/18 14:13:31;;;;;;;;;;;23.20;43.70;;;;;;1523408;76;817;-75
2021/05/18 14:15:53;;;;;;;;;;;23.30;43.90;;;;;;1543839;76;1191;-74
2021/05/18 14:17:55;;;;;;;;;;;23.20;43.90;;;;;;1556225;74;722;-56
2021/05/18 14:19:57;;;;;;;;;;;23.20;43.80;;;;;;1551434;74;1173;-56
2021/05/18 14:21:59;;;;;;;;;;;23.20;43.70;;;;;;1544735;74;778;-57
2021/05/18 14:24:22;;;;;;;;;;;23.20;43.60;;;;;;1549535;74;1944;-56
2021/05/18 14:26:23;;;;;;;;;;;23.20;43.50;;;;;;1540133;74;1491;-56
2021/05/18 14:28:25;;;;;;;;;;;23.20;42.80;;;;;;1546853;74;1048;-58
2021/05/18 14:30:27;;;;;;;;;;;23.10;42.40;;;;;;1567888;74;1145;-58
2021/05/18 14:32:29;;;;;;;;;;;23.20;42.80;;;;;;1573450;74;763;-57
2021/05/18 14:34:31;;;;;;;;;;;23.20;42.90;;;;;;1563817;74;751;-59
2021/05/18 14:36:33;;;;;;;;;;;23.10;42.90;;;;;;1565220;74;865;-59
2021/05/18 14:38:35;;;;;;;;;;;23.20;42.80;;;;;;1568758;74;767;-57
2021/05/18 14:42:57;;;;;;;;;;;23.20;42.60;;;;;;1564348;74;875;-57
2021/05/18 14:44:53;;;;;;;;;;;23.20;42.50;;;;;;1559926;74;1907;-56
2021/05/18 14:47:06;;;;;;;;;;;23.20;42.40;;;;;;1562645;74;760;-56
2021/05/18 14:55:43;;;;;;;;;;;23.20;42.30;;;;;;1571411;74;859;-59
2021/05/18 14:57:46;;;;;;;;;;;23.20;42.30;;;;;;1562654;74;727;-59
2021/05/18 14:59:48;;;;;;;;;;;23.10;42.30;;;;;;1568298;74;1157;-55
2021/05/18 15:01:50;;;;;;;;;;;23.30;42.30;;;;;;1565977;74;778;-59
2021/05/18 15:03:52;;;;;;;;;;;23.20;42.10;;;;;;1562221;74;817;-59
2021/05/18 15:05:54;;;;;;;;;;;23.10;42.10;;;;;;1562530;74;1904;-57
2021/05/18 15:07:56;;;;;;;;;;;23.10;42.10;;;;;;1570692;74;765;-59
2021/05/18 15:09:57;;;;;;;;;;;23.20;42.00;;;;;;1561004;74;1219;-55
2021/05/18 15:11:59;;;;;;;;;;;23.10;42.00;;;;;;1567232;74;807;-59
2021/05/18 15:14:02;;;;;;;;;;;23.10;42.00;;;;;;1567583;73;778;-59
2021/05/18 15:16:04;;;;;;;;;;;23.20;41.90;;;;;;1574447;74;707;-58
2021/05/18 15:18:06;;;;;;;;;;;23.20;41.90;;;;;;1576976;74;792;-55
2021/05/18 15:20:08;;;;;;;;;;;23.20;42.00;;;;;;1559926;74;1196;-60
2021/05/18 15:22:11;;;;;;;;;;;23.20;42.00;;;;;;1558265;74;639;-57
2021/05/18 15:24:12;;;;;;;;;;;23.20;42.10;;;;;;1566354;74;1919;-59
2021/05/18 15:26:14;;;;;;;;;;;23.20;42.20;;;;;;1566003;74;754;-59
2021/05/18 15:28:16;;;;;;;;;;;23.20;42.10;;;;;;1565910;74;737;-57
2021/05/18 15:30:18;;;;;;;;;;;23.20;42.00;;;;;;1552898;74;1089;-57
2021/05/18 15:32:20;;;;;;;;;;;23.20;42.00;;;;;;1545927;74;729;-57
2021/05/18 15:34:22;;;;;;;;;;;23.20;41.90;;;;;;1548557;74;706;-57
2021/05/18 15:36:24;;;;;;;;;;;23.20;41.90;;;;;;1549321;74;715;-57
2021/05/18 15:38:26;;;;;;;;;;;23.20;41.90;;;;;;1559155;74;873;-59
2021/05/18 15:40:28;;;;;;;;;;;23.20;41.90;;;;;;1554382;74;1130;-57
2021/05/18 15:42:30;;;;;;;;;;;23.20;41.90;;;;;;1551738;74;775;-59
2021/05/18 15:44:31;;;;;;;;;;;23.20;41.80;;;;;;1547301;74;1942;-58
2021/05/18 15:46:33;;;;;;;;;;;23.10;41.80;;;;;;1558306;74;731;-58
2021/05/18 15:48:35;;;;;;;;;;;23.20;41.90;;;;;;1569107;74;802;-58
2021/05/18 15:50:37;;;;;;;;;;;23.10;42.00;;;;;;1558027;74;1118;-56
2021/05/18 15:52:39;;;;;;;;;;;23.10;42.00;;;;;;1554039;74;745;-58
2021/05/18 15:54:41;;;;;;;;;;;23.10;42.00;;;;;;1552330;74;742;-59
2021/05/18 15:56:43;;;;;;;;;;;23.00;41.90;;;;;;1560957;74;901;-58
2021/05/18 15:58:44;;;;;;;;;;;23.10;42.10;;;;;;1565078;74;752;-57
2021/05/18 16:00:47;;;;;;;;;;;23.00;42.00;;;;;;1555609;74;1167;-58
2021/05/18 16:02:49;;;;;;;;;;;23.00;41.90;;;;;;1568077;74;741;-55
2021/05/18 16:04:51;;;;;;;;;;;23.00;42.10;;;;;;1559452;74;1906;-58
2021/05/18 16:06:54;;;;;;;;;;;22.90;42.20;;;;;;1561665;74;707;-58
2021/05/18 16:11:02;;;;;;;;;;;22.90;42.30;;;;;;1554094;73;1121;-58
2021/05/18 16:13:04;;;;;;;;;;;22.90;42.30;;;;;;1564900;74;771;-56
2021/05/18 16:15:06;;;;;;;;;;;22.90;42.30;;;;;;1558914;74;720;-54
2021/05/18 16:17:08;;;;;;;;;;;22.90;42.30;;;;;;1562251;74;778;-56
2021/05/18 16:19:10;;;;;;;;;;;22.90;42.40;;;;;;1558221;74;803;-58
2021/05/18 16:21:13;;;;;;;;;;;22.90;42.40;;;;;;1559234;74;1220;-59
2021/05/18 16:23:15;;;;;;;;;;;22.90;42.40;;;;;;1567113;74;747;-54
2021/05/18 16:25:18;;;;;;;;;;;22.90;42.50;;;;;;1561751;74;1937;-58
2021/05/18 16:27:20;;;;;;;;;;;22.90;42.40;;;;;;1570487;74;1277;-55
2021/05/18 16:29:22;;;;;;;;;;;22.90;42.50;;;;;;1563180;74;740;-58
2021/05/18 16:31:24;;;;;;;;;;;22.80;42.30;;;;;;1565701;74;1117;-58
2021/05/18 16:33:27;;;;;;;;;;;22.80;42.40;;;;;;1561874;74;876;-56
2021/05/18 16:35:29;;;;;;;;;;;22.80;42.40;;;;;;1578574;74;670;-54
2021/05/18 16:37:31;;;;;;;;;;;22.80;42.40;;;;;;1567318;74;898;-58
2021/05/18 16:39:33;;;;;;;;;;;22.80;42.40;;;;;;1561795;74;708;-55
2021/05/18 16:41:36;;;;;;;;;;;22.80;42.40;;;;;;1555916;74;1158;-55
2021/05/18 16:43:38;;;;;;;;;;;22.70;42.40;;;;;;1559448;74;713;-54
2021/05/18 16:45:39;;;;;;;;;;;22.80;42.40;;;;;;1573426;74;1935;-56
2021/05/18 16:47:41;;;;;;;;;;;22.70;42.40;;;;;;1572679;74;704;-58
2021/05/18 16:49:43;;;;;;;;;;;22.70;42.50;;;;;;1568277;74;1190;-56